sim
Sign-in with your pilot id or email,
or register
Callsign
Passwort

Schedule Details

Flight Number: EWG9552
Departure: Dusseldorf International Airport (EDDL) at 07:05
Arrival: Fuerteventura Airport (GCFV) at 11:40
Route: Eurowings Passenger Schedule. Enter filed route here before submitting Pirep.

Weather Information
Getting current METAR information for EDDL 222250Z 04003KT 020V080 CAVOK 19/15 Q1022 NOSIG
Getting current METAR information for GCFV 222230Z 36018KT CAVOK 21/17 Q1018

Schedule Frequency

Route Map